createdAt,value
2018-02-26T00:01:22.860Z,15.68
2018-02-26T00:03:49.100Z,15.93
2018-02-26T00:06:15.358Z,15.45
2018-02-26T00:08:41.573Z,16.30
2018-02-26T00:11:07.848Z,14.23
2018-02-26T00:13:34.096Z,17.42
2018-02-26T00:16:00.334Z,16.50
2018-02-26T00:18:26.575Z,16.62
2018-02-26T00:20:52.798Z,14.85
2018-02-26T00:23:19.081Z,13.85
2018-02-26T00:25:46.068Z,17.42
2018-02-26T00:28:12.318Z,16.87
2018-02-26T00:30:38.585Z,17.62
2018-02-26T00:33:04.802Z,17.67
2018-02-26T00:35:31.066Z,16.55
2018-02-26T00:37:57.291Z,16.12
2018-02-26T00:40:23.515Z,17.75
2018-02-26T00:42:49.783Z,14.23
2018-02-26T00:45:16.067Z,14.13
2018-02-26T00:47:43.056Z,17.75
2018-02-26T00:50:09.276Z,18.12
2018-02-26T00:52:35.525Z,15.88
2018-02-26T00:55:01.747Z,15.65
2018-02-26T00:57:28.712Z,16.08
2018-02-26T00:59:54.951Z,16.02
2018-02-26T01:02:21.202Z,15.77
2018-02-26T01:04:47.411Z,14.60
2018-02-26T01:07:13.677Z,15.02
2018-02-26T01:09:39.924Z,15.52
2018-02-26T01:12:06.158Z,14.70
2018-02-26T01:14:32.429Z,15.20
2018-02-26T01:16:58.654Z,14.82
2018-02-26T01:19:24.883Z,14.90
2018-02-26T01:21:51.090Z,16.15
2018-02-26T01:24:17.641Z,14.98
2018-02-26T01:26:43.845Z,13.65
2018-02-26T01:29:10.079Z,14.00
2018-02-26T01:31:36.315Z,13.50
2018-02-26T01:34:02.555Z,13.73
2018-02-26T01:36:28.796Z,13.82
2018-02-26T01:38:55.025Z,13.85
2018-02-26T01:41:21.254Z,15.02
2018-02-26T01:43:47.478Z,14.38
2018-02-26T01:46:14.444Z,15.05
2018-02-26T01:48:40.690Z,13.88
2018-02-26T01:51:17.033Z,15.25
2018-02-26T01:53:43.264Z,12.07
2018-02-26T01:56:09.484Z,14.15
2018-02-26T01:58:35.716Z,12.80
2018-02-26T02:01:02.034Z,13.15
2018-02-26T02:03:28.292Z,12.40
2018-02-26T02:05:54.501Z,12.30
2018-02-26T02:08:21.456Z,13.90
2018-02-26T02:10:48.447Z,12.60
2018-02-26T02:13:14.673Z,13.65
2018-02-26T02:15:40.899Z,11.63
2018-02-26T02:18:07.842Z,13.43
2018-02-26T02:20:34.816Z,12.55
2018-02-26T02:23:01.061Z,13.65
2018-02-26T02:25:27.284Z,13.82
2018-02-26T02:27:54.242Z,15.10
2018-02-26T02:30:21.210Z,14.45
2018-02-26T02:32:48.178Z,14.75
2018-02-26T02:35:14.396Z,12.32
2018-02-26T02:37:41.394Z,13.55
2018-02-26T02:40:07.673Z,14.63
2018-02-26T02:42:33.920Z,16.35
2018-02-26T02:45:00.154Z,13.85
2018-02-26T02:47:26.397Z,15.68
2018-02-26T02:49:52.624Z,14.50
2018-02-26T02:52:18.844Z,14.23
2018-02-26T02:54:45.072Z,15.00
2018-02-26T02:57:11.302Z,17.25
2018-02-26T02:59:37.571Z,15.57
2018-02-26T03:02:03.796Z,17.92
2018-02-26T03:04:30.056Z,16.33
2018-02-26T03:06:56.311Z,17.10
2018-02-26T03:09:22.539Z,15.93
2018-02-26T03:11:48.765Z,17.40
2018-02-26T03:14:14.993Z,15.73
2018-02-26T03:16:41.239Z,17.27
2018-02-26T03:19:07.460Z,17.45
2018-02-26T03:21:33.973Z,16.42
2018-02-26T03:24:00.209Z,17.67
2018-02-26T03:26:26.434Z,19.17
2018-02-26T03:28:52.643Z,16.83
2018-02-26T03:31:18.887Z,18.02
2018-02-26T03:33:45.277Z,16.50
2018-02-26T03:36:11.506Z,16.58
2018-02-26T03:38:37.744Z,17.10
2018-02-26T03:41:03.991Z,18.48
2018-02-26T03:43:30.242Z,15.07
2018-02-26T03:45:56.474Z,16.50
2018-02-26T03:48:22.703Z,17.42
2018-02-26T03:50:48.914Z,16.55
2018-02-26T03:53:15.143Z,17.55
2018-02-26T03:55:41.363Z,15.77
2018-02-26T03:58:08.319Z,17.37
2018-02-26T04:00:35.312Z,18.50
2018-02-26T04:03:01.525Z,17.40
2018-02-26T04:05:28.484Z,17.95
2018-02-26T04:07:54.711Z,18.42
2018-02-26T04:10:21.695Z,18.40
2018-02-26T04:12:47.922Z,19.15
2018-02-26T04:15:14.860Z,16.98
2018-02-26T04:17:41.085Z,18.17
2018-02-26T04:20:07.312Z,19.73
2018-02-26T04:22:33.539Z,17.87
2018-02-26T04:24:59.760Z,18.00
2018-02-26T04:27:25.995Z,21.20
2018-02-26T04:29:52.252Z,17.42
2018-02-26T04:32:25.509Z,18.87
2018-02-26T04:34:52.485Z,16.95
2018-02-26T04:37:18.704Z,16.73
2018-02-26T04:39:44.919Z,18.10
2018-02-26T04:42:11.161Z,17.90
2018-02-26T04:44:37.368Z,17.60
2018-02-26T04:47:03.607Z,18.25
2018-02-26T04:49:29.848Z,18.35
2018-02-26T04:51:56.098Z,15.30
2018-02-26T04:54:22.314Z,16.50
2018-02-26T04:56:48.516Z,15.93
2018-02-26T04:59:14.769Z,14.77
2018-02-26T05:01:41.728Z,17.55
2018-02-26T05:04:07.965Z,15.80
2018-02-26T05:06:34.957Z,16.52
2018-02-26T05:09:01.206Z,17.95
2018-02-26T05:11:27.428Z,17.08
2018-02-26T05:13:53.698Z,18.00
2018-02-26T05:16:19.921Z,16.00
2018-02-26T05:18:46.151Z,17.42
2018-02-26T05:21:12.365Z,17.87
2018-02-26T05:23:39.364Z,16.52
2018-02-26T05:26:06.444Z,17.92
2018-02-26T05:28:32.860Z,16.75
2018-02-26T05:30:59.081Z,18.15
2018-02-26T05:33:26.043Z,15.57
2018-02-26T05:35:53.398Z,17.17
2018-02-26T05:38:20.871Z,14.73
2018-02-26T05:40:47.315Z,19.02
2018-02-26T05:43:14.279Z,18.50
2018-02-26T05:45:41.594Z,17.58
2018-02-26T05:48:08.043Z,17.92
2018-02-26T05:50:34.263Z,18.87
2018-02-26T05:53:00.483Z,18.08
2018-02-26T05:55:26.710Z,17.62
2018-02-26T05:57:53.666Z,17.73
2018-02-26T06:00:20.657Z,15.15
2018-02-26T06:02:46.895Z,18.37
2018-02-26T06:05:13.109Z,17.05
2018-02-26T06:07:40.198Z,17.17
2018-02-26T06:10:06.599Z,18.15
2018-02-26T06:12:33.598Z,18.60
2018-02-26T06:14:59.846Z,18.00
2018-02-26T06:17:26.062Z,18.05
2018-02-26T06:19:52.305Z,18.55
2018-02-26T06:22:18.518Z,17.80
2018-02-26T06:24:45.478Z,17.80
2018-02-26T06:27:12.450Z,14.57
2018-02-26T06:29:39.513Z,19.67
2018-02-26T06:32:05.741Z,24.42
2018-02-26T06:34:33.176Z,22.48
2018-02-26T06:37:01.372Z,16.60
2018-02-26T06:39:27.758Z,15.98
2018-02-26T06:41:54.257Z,16.17
2018-02-26T06:44:20.466Z,15.73
2018-02-26T06:46:46.702Z,15.98
2018-02-26T06:49:18.160Z,17.35
2018-02-26T06:51:45.322Z,15.48
2018-02-26T06:54:11.707Z,15.73
2018-02-26T06:56:38.127Z,16.73
2018-02-26T06:59:04.471Z,16.70
2018-02-26T07:01:30.741Z,17.50
2018-02-26T07:03:56.969Z,16.50
2018-02-26T07:06:23.207Z,18.20
2018-02-26T07:08:49.429Z,17.48
2018-02-26T07:11:15.653Z,17.23
2018-02-26T07:13:41.886Z,16.67
2018-02-26T07:16:08.393Z,14.75
2018-02-26T07:18:34.601Z,18.02
2018-02-26T07:21:00.822Z,14.85
2018-02-26T07:23:27.059Z,16.40
2018-02-26T07:25:53.267Z,17.85
2018-02-26T07:28:20.228Z,14.18
2018-02-26T07:30:47.201Z,15.80
2018-02-26T07:33:14.178Z,15.40
2018-02-26T07:35:40.379Z,13.10
2018-02-26T07:38:06.599Z,16.37
2018-02-26T07:40:32.838Z,17.23
2018-02-26T07:42:59.058Z,18.37
2018-02-26T07:45:25.279Z,18.25
2018-02-26T07:47:51.498Z,17.27
2018-02-26T07:50:17.736Z,18.87
2018-02-26T07:52:43.942Z,15.27
2018-02-26T07:55:10.194Z,14.63
2018-02-26T07:57:36.404Z,15.65
2018-02-26T08:00:02.655Z,14.45
2018-02-26T08:02:28.887Z,15.50
2018-02-26T08:04:55.092Z,15.75
2018-02-26T08:07:21.341Z,15.93
2018-02-26T08:09:47.561Z,15.35
2018-02-26T08:12:13.813Z,14.87
2018-02-26T08:14:40.045Z,12.77
2018-02-26T08:17:06.277Z,14.52
2018-02-26T08:19:32.534Z,16.40
2018-02-26T08:21:58.754Z,10.93
2018-02-26T08:24:25.714Z,13.43
2018-02-26T08:26:52.704Z,14.02
2018-02-26T08:29:18.922Z,13.73
2018-02-26T08:31:45.178Z,13.10
2018-02-26T08:34:11.402Z,15.73
2018-02-26T08:36:37.906Z,13.88
2018-02-26T08:39:04.170Z,13.07
2018-02-26T08:41:31.122Z,13.95
2018-02-26T08:43:58.145Z,15.65
2018-02-26T08:46:24.392Z,14.82
2018-02-26T08:48:50.652Z,13.70
2018-02-26T08:51:16.910Z,14.93
2018-02-26T08:53:43.894Z,14.52
2018-02-26T08:56:10.114Z,12.20
2018-02-26T08:58:37.096Z,13.10
2018-02-26T09:01:03.336Z,16.15
2018-02-26T09:03:29.564Z,15.02
2018-02-26T09:05:55.822Z,14.40
2018-02-26T09:08:22.090Z,15.85
2018-02-26T09:10:48.389Z,14.07
2018-02-26T09:13:14.636Z,12.07
2018-02-26T09:15:40.890Z,13.90
2018-02-26T09:18:07.136Z,13.75
2018-02-26T09:20:33.366Z,13.45
2018-02-26T09:22:59.589Z,14.98
2018-02-26T09:25:26.122Z,14.68
2018-02-26T09:27:53.145Z,15.13
2018-02-26T09:30:19.346Z,15.02
2018-02-26T09:32:45.585Z,13.62
2018-02-26T09:35:11.811Z,14.95
2018-02-26T09:37:38.052Z,12.57
2018-02-26T09:40:04.270Z,12.85
2018-02-26T09:42:30.518Z,12.15
2018-02-26T09:44:57.506Z,10.55
2018-02-26T09:47:23.775Z,11.20
2018-02-26T09:49:56.105Z,12.95
2018-02-26T09:52:23.058Z,12.90
2018-02-26T09:54:50.032Z,13.55
2018-02-26T09:57:16.248Z,10.45
2018-02-26T09:59:42.489Z,11.90
2018-02-26T10:02:09.458Z,11.95
2018-02-26T10:04:36.451Z,14.68
2018-02-26T10:07:02.706Z,11.80
2018-02-26T10:09:28.924Z,11.70
2018-02-26T10:11:55.163Z,12.95
2018-02-26T10:14:21.376Z,14.60
2018-02-26T10:16:48.361Z,12.40
2018-02-26T10:19:14.593Z,12.30
2018-02-26T10:21:41.585Z,11.98
2018-02-26T10:24:07.820Z,13.05
2018-02-26T10:26:34.029Z,13.50
2018-02-26T10:29:00.260Z,13.95
2018-02-26T10:31:27.265Z,14.23
2018-02-26T10:33:53.492Z,12.30
2018-02-26T10:36:19.703Z,14.07
2018-02-26T10:38:45.936Z,14.15
2018-02-26T10:41:12.936Z,13.23
2018-02-26T10:43:39.534Z,13.75
2018-02-26T10:46:06.498Z,12.95
2018-02-26T10:48:33.470Z,11.43
2018-02-26T10:50:59.720Z,11.73
2018-02-26T10:53:25.935Z,10.80
2018-02-26T10:55:53.001Z,13.85
2018-02-26T10:58:19.965Z,13.07
2018-02-26T11:00:46.466Z,10.90
2018-02-26T11:03:12.683Z,12.93
2018-02-26T11:05:38.942Z,13.85
2018-02-26T11:08:05.191Z,12.90
2018-02-26T11:10:31.393Z,13.13
2018-02-26T11:12:57.886Z,11.00
2018-02-26T11:15:24.105Z,12.50
2018-02-26T11:17:50.308Z,12.18
2018-02-26T11:20:16.534Z,13.75
2018-02-26T11:22:42.766Z,12.32
2018-02-26T11:25:09.747Z,14.07
2018-02-26T11:27:35.963Z,13.45
2018-02-26T11:30:02.965Z,12.95
2018-02-26T11:32:29.149Z,13.18
2018-02-26T11:34:55.360Z,10.80
2018-02-26T11:37:21.583Z,12.52
2018-02-26T11:39:47.836Z,12.15
2018-02-26T11:42:14.082Z,13.35
2018-02-26T11:44:40.330Z,12.60
2018-02-26T11:47:06.555Z,14.85
2018-02-26T11:49:32.781Z,12.60
2018-02-26T11:51:58.994Z,13.23
2018-02-26T11:54:25.255Z,12.60
2018-02-26T11:56:51.504Z,12.85
2018-02-26T11:59:17.994Z,13.05
2018-02-26T12:01:44.224Z,12.73
2018-02-26T12:04:10.450Z,14.02
2018-02-26T12:06:36.685Z,12.85
2018-02-26T12:09:02.996Z,10.25
2018-02-26T12:11:29.220Z,15.02
2018-02-26T12:13:56.188Z,15.68
2018-02-26T12:16:22.408Z,15.27
2018-02-26T12:18:49.406Z,15.57
2018-02-26T12:21:15.624Z,13.90
2018-02-26T12:23:41.878Z,14.60
2018-02-26T12:26:08.127Z,14.23
2018-02-26T12:28:34.718Z,14.50
2018-02-26T12:31:00.940Z,17.42
2018-02-26T12:33:27.154Z,14.48
2018-02-26T12:35:53.389Z,14.65
2018-02-26T12:38:19.612Z,13.65
2018-02-26T12:40:45.845Z,15.57
2018-02-26T12:43:12.805Z,15.45
2018-02-26T12:45:39.061Z,14.10
2018-02-26T12:48:05.300Z,14.35
2018-02-26T12:50:31.528Z,13.07
2018-02-26T12:52:58.525Z,13.20
2018-02-26T12:55:24.765Z,15.35
2018-02-26T12:57:52.119Z,15.13
2018-02-26T13:00:18.335Z,13.32
2018-02-26T13:02:44.581Z,13.18
2018-02-26T13:05:10.825Z,15.63
2018-02-26T13:07:37.043Z,11.75
2018-02-26T13:10:04.037Z,13.05
2018-02-26T13:12:30.271Z,14.38
2018-02-26T13:14:56.499Z,12.93
2018-02-26T13:17:22.732Z,12.93
2018-02-26T13:19:49.701Z,15.32
2018-02-26T13:22:15.927Z,13.32
2018-02-26T13:24:42.905Z,11.50
2018-02-26T13:27:09.141Z,13.35
2018-02-26T13:29:35.381Z,14.00
2018-02-26T13:32:01.623Z,13.43
2018-02-26T13:34:27.867Z,13.23
2018-02-26T13:36:54.090Z,14.32
2018-02-26T13:39:21.051Z,11.88
2018-02-26T13:41:48.109Z,10.85
2018-02-26T13:44:15.109Z,11.95
2018-02-26T13:46:41.345Z,11.57
2018-02-26T13:49:07.556Z,11.07
2018-02-26T13:51:33.823Z,11.35
2018-02-26T13:54:00.810Z,11.73
2018-02-26T13:56:27.096Z,13.00
2018-02-26T13:58:53.315Z,13.00
2018-02-26T14:01:20.265Z,13.13
2018-02-26T14:03:47.246Z,12.20
2018-02-26T14:06:13.488Z,12.32
2018-02-26T14:08:39.761Z,14.05
2018-02-26T14:11:05.979Z,13.98
2018-02-26T14:13:32.611Z,11.25
2018-02-26T14:15:59.580Z,12.05
2018-02-26T14:18:25.868Z,13.75
2018-02-26T14:20:52.112Z,11.38
2018-02-26T14:23:18.332Z,11.57
2018-02-26T14:25:44.534Z,13.65
2018-02-26T14:28:11.539Z,13.68
2018-02-26T14:30:37.778Z,12.55
2018-02-26T14:33:04.030Z,13.90
2018-02-26T14:35:30.255Z,12.48
2018-02-26T14:37:56.492Z,14.70
2018-02-26T14:40:22.712Z,13.50
2018-02-26T14:42:48.955Z,12.63
2018-02-26T14:45:15.204Z,15.07
2018-02-26T14:47:41.460Z,14.43
2018-02-26T14:50:07.737Z,13.20
2018-02-26T14:52:33.950Z,14.70
2018-02-26T14:55:00.185Z,13.62
2018-02-26T14:57:26.428Z,12.95
2018-02-26T14:59:52.672Z,13.18
2018-02-26T15:02:18.925Z,14.65
2018-02-26T15:04:45.167Z,13.32
2018-02-26T15:07:11.403Z,15.40
2018-02-26T15:09:37.664Z,16.02
2018-02-26T15:12:04.647Z,17.20
2018-02-26T15:14:30.867Z,14.00
2018-02-26T15:16:57.849Z,15.23
2018-02-26T15:19:24.061Z,14.45
2018-02-26T15:21:50.310Z,13.05
2018-02-26T15:24:17.299Z,13.70
2018-02-26T15:26:43.536Z,14.55
2018-02-26T15:29:09.766Z,13.98
2018-02-26T15:31:36.007Z,14.50
2018-02-26T15:34:02.259Z,14.70
2018-02-26T15:36:28.498Z,12.85
2018-02-26T15:38:54.764Z,15.20
2018-02-26T15:41:21.028Z,14.07
2018-02-26T15:43:48.102Z,14.98
2018-02-26T15:46:15.072Z,15.27
2018-02-26T15:48:42.029Z,13.93
2018-02-26T15:51:09.058Z,15.38
2018-02-26T15:53:35.276Z,15.88
2018-02-26T15:56:01.532Z,14.43
2018-02-26T15:58:27.784Z,14.38
2018-02-26T16:00:54.343Z,13.45
2018-02-26T16:03:20.587Z,14.40
2018-02-26T16:05:47.559Z,11.63
2018-02-26T16:08:14.550Z,13.60
2018-02-26T16:10:40.816Z,14.27
2018-02-26T16:13:07.061Z,13.93
2018-02-26T16:15:33.304Z,14.27
2018-02-26T16:17:59.564Z,13.85
2018-02-26T16:20:26.535Z,13.50
2018-02-26T16:22:53.521Z,15.25
2018-02-26T16:25:19.755Z,15.00
2018-02-26T16:27:46.000Z,13.95
2018-02-26T16:30:12.262Z,13.95
2018-02-26T16:32:38.478Z,14.05
2018-02-26T16:35:04.774Z,15.45
2018-02-26T16:37:31.001Z,14.93
2018-02-26T16:39:57.248Z,14.38
2018-02-26T16:42:23.579Z,14.35
2018-02-26T16:44:49.817Z,14.23
2018-02-26T16:47:16.072Z,14.35
2018-02-26T16:49:42.312Z,15.02
2018-02-26T16:52:08.568Z,13.88
2018-02-26T16:54:34.825Z,14.15
2018-02-26T16:57:01.820Z,14.85
2018-02-26T16:59:28.106Z,16.33
2018-02-26T17:01:54.366Z,14.20
2018-02-26T17:04:21.360Z,15.70
2018-02-26T17:06:47.616Z,14.63
2018-02-26T17:09:15.785Z,14.68
2018-02-26T17:11:42.042Z,14.55
2018-02-26T17:14:08.290Z,16.00
2018-02-26T17:16:34.530Z,16.25
2018-02-26T17:19:01.517Z,15.63
2018-02-26T17:21:28.492Z,15.15
2018-02-26T17:23:54.716Z,14.05
2018-02-26T17:26:20.948Z,16.17
2018-02-26T17:28:47.182Z,15.15
2018-02-26T17:31:13.447Z,15.32
2018-02-26T17:33:40.459Z,16.95
2018-02-26T17:36:06.721Z,15.50
2018-02-26T17:38:32.969Z,15.95
2018-02-26T17:40:59.184Z,14.85
2018-02-26T17:43:25.491Z,13.85
2018-02-26T17:45:51.739Z,16.10
2018-02-26T17:48:18.002Z,16.15
2018-02-26T17:50:44.277Z,18.80
2018-02-26T17:53:10.549Z,16.35
2018-02-26T17:55:36.814Z,14.65
2018-02-26T17:58:03.087Z,16.12
2018-02-26T18:00:29.347Z,16.08
2018-02-26T18:02:55.616Z,17.10
2018-02-26T18:05:21.916Z,16.12
2018-02-26T18:07:48.170Z,17.52
2018-02-26T18:10:15.154Z,17.73
2018-02-26T18:12:41.421Z,15.75
2018-02-26T18:15:07.724Z,15.05
2018-02-26T18:17:34.970Z,15.93
2018-02-26T18:20:01.224Z,14.13
2018-02-26T18:22:28.209Z,14.68
2018-02-26T18:24:54.479Z,15.40
2018-02-26T18:27:20.756Z,15.32
2018-02-26T18:59:00.317Z,16.93
2018-02-26T19:01:26.577Z,15.90
2018-02-26T19:03:52.878Z,15.18
2018-02-26T19:06:19.156Z,18.30
2018-02-26T19:08:45.440Z,17.40
2018-02-26T19:11:11.742Z,16.65
2018-02-26T19:13:37.998Z,15.60
2018-02-26T19:16:05.065Z,14.90
2018-02-26T19:18:32.129Z,14.87
2018-02-26T19:20:59.210Z,15.68
2018-02-26T19:23:25.534Z,15.20
2018-02-26T19:25:52.565Z,17.85
2018-02-26T19:28:18.925Z,17.00
2018-02-26T19:30:45.988Z,16.58
2018-02-26T19:33:13.030Z,16.70
2018-02-26T19:35:39.304Z,16.20
2018-02-26T19:38:05.614Z,16.40
2018-02-26T19:40:31.876Z,17.80
2018-02-26T19:42:58.968Z,16.90
2018-02-26T19:45:25.296Z,15.35
2018-02-26T19:47:51.660Z,16.27
2018-02-26T19:50:17.958Z,15.70
2018-02-26T19:52:44.315Z,17.27
2018-02-26T19:55:11.369Z,17.50
2018-02-26T19:57:38.424Z,16.50
2018-02-26T20:00:04.801Z,18.25
2018-02-26T20:02:31.089Z,17.00
2018-02-26T20:04:57.415Z,17.58
2018-02-26T20:07:23.752Z,18.00
2018-02-26T20:09:50.041Z,16.23
2018-02-26T20:12:17.456Z,18.40
2018-02-26T20:14:43.775Z,17.50
2018-02-26T20:17:10.092Z,17.92
2018-02-26T20:19:37.133Z,16.87
2018-02-26T20:22:03.437Z,16.65
2018-02-26T20:24:29.753Z,16.80
2018-02-26T20:26:56.318Z,20.17
2018-02-26T20:29:22.663Z,17.40
2018-02-26T20:31:49.840Z,19.83
2018-02-26T20:34:16.144Z,16.90
2018-02-26T20:36:43.177Z,18.37
2018-02-26T20:39:09.463Z,19.15
2018-02-26T20:41:35.783Z,18.33
2018-02-26T20:44:02.079Z,18.25
2018-02-26T20:46:28.387Z,17.70
2018-02-26T20:48:55.513Z,17.02
2018-02-26T20:51:22.557Z,19.55
2018-02-26T20:53:48.887Z,18.73
2018-02-26T20:56:15.190Z,19.30
2018-02-26T20:58:41.486Z,18.83
2018-02-26T21:01:07.771Z,18.90
2018-02-26T21:03:33.993Z,19.92
2018-02-26T21:06:00.993Z,17.62
2018-02-26T21:08:27.254Z,18.77
2018-02-26T21:10:53.540Z,18.80
2018-02-26T21:13:19.799Z,19.25
2018-02-26T21:15:46.075Z,19.12
2018-02-26T21:18:12.340Z,20.12
2018-02-26T21:20:39.313Z,17.40
2018-02-26T21:23:06.322Z,18.30
2018-02-26T21:25:32.623Z,19.83
2018-02-26T21:27:58.869Z,19.75
2018-02-26T21:30:25.120Z,20.10
2018-02-26T21:32:51.344Z,23.33
2018-02-26T21:35:17.820Z,22.60
2018-02-26T21:37:44.075Z,18.40
2018-02-26T21:40:10.313Z,18.17
2018-02-26T21:42:36.528Z,20.20
2018-02-26T21:45:02.804Z,22.30
2018-02-26T21:47:29.794Z,18.60
2018-02-26T21:49:56.761Z,19.80
2018-02-26T21:52:23.724Z,19.75
2018-02-26T21:54:50.719Z,20.60
2018-02-26T21:57:17.722Z,20.05
2018-02-26T21:59:43.928Z,18.95
2018-02-26T22:02:10.192Z,18.30
2018-02-26T22:04:36.500Z,18.73
2018-02-26T22:07:02.692Z,20.83
2018-02-26T22:09:29.680Z,19.08
2018-02-26T22:11:55.920Z,20.15
2018-02-26T22:14:22.431Z,21.55
2018-02-26T22:16:48.652Z,21.45
2018-02-26T22:19:14.874Z,18.98
2018-02-26T22:21:41.111Z,19.05
2018-02-26T22:24:07.354Z,20.45
2018-02-26T22:26:33.600Z,18.52
2018-02-26T22:28:59.853Z,20.25
2018-02-26T22:31:26.157Z,20.48
2018-02-26T22:33:52.379Z,17.85
2018-02-26T22:36:18.601Z,20.65
2018-02-26T22:38:45.595Z,20.92
2018-02-26T22:41:11.851Z,20.52
2018-02-26T22:43:38.109Z,19.83
2018-02-26T22:46:04.318Z,21.70
2018-02-26T22:48:30.546Z,18.98
2018-02-26T22:50:56.777Z,19.30
2018-02-26T22:53:23.750Z,18.75
2018-02-26T22:55:49.975Z,22.25
2018-02-26T22:58:16.223Z,19.87
2018-02-26T23:00:42.487Z,20.75
2018-02-26T23:03:08.736Z,19.48
2018-02-26T23:05:34.966Z,22.17
2018-02-26T23:08:01.173Z,19.12
2018-02-26T23:10:27.695Z,22.20
2018-02-26T23:12:53.923Z,18.95
2018-02-26T23:15:20.152Z,20.60
2018-02-26T23:17:46.378Z,20.45
2018-02-26T23:20:12.626Z,21.60
2018-02-26T23:22:38.870Z,20.45
2018-02-26T23:25:05.113Z,21.60
2018-02-26T23:27:31.347Z,21.92
2018-02-26T23:29:57.570Z,21.60
2018-02-26T23:32:23.789Z,22.87
2018-02-26T23:34:50.026Z,25.15
2018-02-26T23:37:16.228Z,21.17
2018-02-26T23:39:42.485Z,20.75
2018-02-26T23:42:09.432Z,20.25
2018-02-26T23:44:35.675Z,21.95
2018-02-26T23:47:01.908Z,23.00
2018-02-26T23:49:28.131Z,21.70
2018-02-26T23:51:54.348Z,23.12
2018-02-26T23:54:32.793Z,21.20
2018-02-26T23:56:59.071Z,22.55
2018-02-26T23:59:25.300Z,22.70
